createdAt,value
2022-11-03T00:01:11.607Z,97249.41
2022-11-03T00:03:38.243Z,97251.47
2022-11-03T00:06:04.840Z,97244.50
2022-11-03T00:08:39.825Z,97248.69
2022-11-03T00:11:14.093Z,97252.75
2022-11-03T00:13:42.100Z,97246.72
2022-11-03T00:16:09.739Z,97252.47
2022-11-03T00:18:36.339Z,97246.03
2022-11-03T00:21:04.680Z,97247.88
2022-11-03T00:23:32.805Z,97249.75
2022-11-03T00:26:14.643Z,97246.03
2022-11-03T00:28:42.481Z,97249.06
2022-11-03T00:31:14.133Z,97234.34
2022-11-03T00:33:41.135Z,97247.75
2022-11-03T00:36:08.216Z,97244.44
2022-11-03T00:38:34.830Z,97238.50
2022-11-03T00:41:02.223Z,97232.69
2022-11-03T00:43:30.382Z,97238.56
2022-11-03T00:45:57.001Z,97231.19
2022-11-03T00:48:23.650Z,97237.78
2022-11-03T00:50:50.265Z,97229.84
2022-11-03T00:53:16.865Z,97235.06
2022-11-03T00:55:49.927Z,97224.63
2022-11-03T00:58:16.530Z,97224.78
2022-11-03T01:00:43.217Z,97217.03
2022-11-03T01:03:09.831Z,97214.91
2022-11-03T01:05:40.963Z,97218.78
2022-11-03T01:08:07.611Z,97227.34
2022-11-03T01:10:36.448Z,97218.22
2022-11-03T01:13:03.199Z,97212.91
2022-11-03T01:15:29.860Z,97204.44
2022-11-03T01:17:56.465Z,97213.34
2022-11-03T01:20:23.061Z,97203.03
2022-11-03T01:22:49.660Z,97207.22
2022-11-03T01:25:16.266Z,97206.66
2022-11-03T01:27:42.866Z,97198.09
2022-11-03T01:30:09.883Z,97197.38
2022-11-03T01:32:36.494Z,97194.59
2022-11-03T01:35:03.244Z,97190.31
2022-11-03T01:37:29.851Z,97188.00
2022-11-03T01:39:56.462Z,97178.44
2022-11-03T01:42:23.075Z,97186.91
2022-11-03T01:44:49.680Z,97184.56
2022-11-03T01:47:18.907Z,97175.41
2022-11-03T01:49:58.610Z,97170.03
2022-11-03T01:52:32.594Z,97172.47
2022-11-03T01:55:01.262Z,97181.03
2022-11-03T01:57:41.276Z,97172.75
2022-11-03T02:00:08.249Z,97174.69
2022-11-03T02:02:34.917Z,97175.78
2022-11-03T02:05:02.017Z,97172.69
2022-11-03T02:07:33.352Z,97165.00
2022-11-03T02:09:59.956Z,97157.97
2022-11-03T02:12:26.569Z,97155.97
2022-11-03T02:15:02.361Z,97152.16
2022-11-03T02:17:29.376Z,97149.00
2022-11-03T02:20:00.103Z,97136.84
2022-11-03T02:22:52.315Z,97136.06
2022-11-03T02:25:41.942Z,97132.25
2022-11-03T02:28:08.557Z,97120.50
2022-11-03T02:31:00.219Z,97128.81
2022-11-03T02:33:41.577Z,97130.22
2022-11-03T02:36:18.024Z,97129.25
2022-11-03T02:39:02.145Z,97114.38
2022-11-03T02:41:29.085Z,97111.59
2022-11-03T02:43:56.160Z,97118.66
2022-11-03T02:46:22.767Z,97108.50
2022-11-03T02:48:49.369Z,97102.00
2022-11-03T02:51:15.972Z,97096.09
2022-11-03T02:53:55.457Z,97090.59
2022-11-03T02:56:22.084Z,97089.44
2022-11-03T02:58:56.662Z,97091.03
2022-11-03T03:01:39.862Z,97085.09
2022-11-03T03:04:08.014Z,97083.16
2022-11-03T03:06:37.557Z,97078.09
2022-11-03T03:09:06.460Z,97066.13
2022-11-03T03:11:33.865Z,97066.50
2022-11-03T03:14:00.464Z,97064.84
2022-11-03T03:16:27.078Z,97070.78
2022-11-03T03:18:59.618Z,97062.56
2022-11-03T03:21:26.881Z,97058.94
2022-11-03T03:23:57.441Z,97062.03
2022-11-03T03:26:45.503Z,97059.41
2022-11-03T03:29:17.280Z,97058.94
2022-11-03T03:31:47.924Z,97044.59
2022-11-03T03:34:33.759Z,97043.44
2022-11-03T03:37:01.744Z,97035.78
2022-11-03T03:39:31.694Z,97037.97
2022-11-03T03:41:58.298Z,97042.59
2022-11-03T03:44:24.918Z,97032.00
2022-11-03T03:46:53.233Z,97039.63
2022-11-03T03:49:19.837Z,97032.06
2022-11-03T03:51:46.457Z,97032.53
2022-11-03T03:54:13.049Z,97023.59
2022-11-03T03:56:43.662Z,97033.69
2022-11-03T03:59:10.281Z,97031.69
2022-11-03T04:01:36.965Z,97036.34
2022-11-03T04:04:03.945Z,97031.34
2022-11-03T04:06:30.586Z,97028.25
2022-11-03T04:08:57.198Z,97027.09
2022-11-03T04:11:23.810Z,97022.72
2022-11-03T04:13:50.411Z,97028.06
2022-11-03T04:16:17.028Z,97031.09
2022-11-03T04:18:43.673Z,97031.69
2022-11-03T04:21:12.481Z,97032.53
2022-11-03T04:23:39.085Z,97025.03
2022-11-03T04:26:10.060Z,97026.88
2022-11-03T04:28:36.667Z,97035.88
2022-11-03T04:31:03.257Z,97027.44
2022-11-03T04:33:29.886Z,97012.16
2022-11-03T04:35:58.289Z,97011.91
2022-11-03T04:38:26.113Z,97009.44
2022-11-03T04:40:59.307Z,97014.19
2022-11-03T04:43:35.357Z,97021.53
2022-11-03T04:46:01.956Z,97015.41
2022-11-03T04:48:28.835Z,97012.28
2022-11-03T04:50:56.592Z,97008.38
2022-11-03T04:53:23.205Z,97005.34
2022-11-03T04:55:51.146Z,96998.28
2022-11-03T04:58:34.185Z,97001.00
2022-11-03T05:01:01.234Z,96993.56
2022-11-03T05:03:30.425Z,96988.75
2022-11-03T05:05:57.301Z,96980.78
2022-11-03T05:08:23.913Z,96983.97
2022-11-03T05:10:50.521Z,96978.41
2022-11-03T05:13:22.097Z,96971.78
2022-11-03T05:15:48.714Z,96962.38
2022-11-03T05:18:30.889Z,96953.47
2022-11-03T05:21:00.819Z,96948.66
2022-11-03T05:23:27.976Z,96952.91
2022-11-03T05:25:54.582Z,96936.59
2022-11-03T05:28:28.580Z,96938.44
2022-11-03T05:30:55.217Z,96933.63
2022-11-03T05:33:42.035Z,96931.94
2022-11-03T05:36:13.799Z,96921.75
2022-11-03T05:38:40.404Z,96925.69
2022-11-03T05:41:13.044Z,96921.31
2022-11-03T05:43:39.659Z,96916.69
2022-11-03T05:46:08.521Z,96923.63
2022-11-03T07:09:24.527Z,96884.00
2022-11-03T07:11:58.204Z,96891.06
2022-11-03T07:14:27.853Z,96895.31
2022-11-03T07:17:04.129Z,96903.56
2022-11-03T07:19:35.253Z,96897.88
2022-11-03T07:22:03.777Z,96893.16
2022-11-03T07:24:31.922Z,96897.31
2022-11-03T07:27:31.289Z,96899.75
2022-11-03T07:29:59.124Z,96892.31
2022-11-03T07:32:30.230Z,96883.69
2022-11-03T07:35:22.563Z,96880.72
2022-11-03T07:37:50.019Z,96883.19
2022-11-03T07:40:24.495Z,96881.50
2022-11-03T07:42:51.438Z,96877.25
2022-11-03T07:45:40.137Z,96884.75
2022-11-03T07:48:26.518Z,96883.25
2022-11-03T07:50:54.530Z,96879.78
2022-11-03T07:53:26.122Z,96887.25
2022-11-03T07:55:53.903Z,96888.03
2022-11-03T07:58:20.426Z,96892.00
2022-11-03T08:00:47.042Z,96888.91
2022-11-03T08:03:24.957Z,96897.50
2022-11-03T08:05:51.583Z,96894.03
2022-11-03T08:08:18.176Z,96890.13
2022-11-03T08:10:44.785Z,96888.59
2022-11-03T08:13:11.397Z,96899.91
2022-11-03T08:15:38.001Z,96893.31
2022-11-03T08:18:04.685Z,96892.94
2022-11-03T08:20:31.277Z,96893.34
2022-11-03T08:23:25.213Z,96886.75
2022-11-03T08:25:44.465Z,96898.38
2022-11-03T08:28:11.110Z,96898.50
2022-11-03T08:30:37.767Z,96889.22
2022-11-03T08:33:04.656Z,96865.38
2022-11-03T08:35:34.003Z,96868.91
2022-11-03T08:38:00.833Z,96867.38
2022-11-03T08:40:27.438Z,96858.44
2022-11-03T08:42:54.055Z,96870.09
2022-11-03T08:45:20.660Z,96870.56
2022-11-03T08:47:47.307Z,96867.00
2022-11-03T08:50:13.912Z,96861.97
2022-11-03T08:52:40.522Z,96867.84
2022-11-03T08:55:07.423Z,96857.31
2022-11-03T08:57:34.036Z,96857.31
2022-11-03T09:00:00.638Z,96851.50
2022-11-03T09:02:27.300Z,96856.09
2022-11-03T09:04:53.911Z,96849.88
2022-11-03T09:07:21.189Z,96830.06
2022-11-03T09:12:34.490Z,96819.66
2022-11-03T09:15:01.099Z,96822.03
2022-11-03T09:17:27.723Z,96813.50
2022-11-03T09:19:54.329Z,96823.25
2022-11-03T09:22:20.930Z,96806.56
2022-11-03T09:24:47.551Z,96792.22
2022-11-03T09:27:14.162Z,96796.84
2022-11-03T09:30:10.856Z,96792.44
2022-11-03T09:32:27.366Z,96791.91
2022-11-03T09:34:53.989Z,96799.06
2022-11-03T09:37:20.599Z,96785.81
2022-11-03T09:39:47.206Z,96761.41
2022-11-03T09:42:13.805Z,96762.97
2022-11-03T09:44:40.426Z,96757.94
2022-11-03T09:47:07.077Z,96759.94
2022-11-03T09:49:33.984Z,96759.41
2022-11-03T09:52:01.266Z,96759.50
2022-11-03T09:54:27.878Z,96747.31
2022-11-03T09:56:54.481Z,96746.97
2022-11-03T09:59:23.061Z,96737.97
2022-11-03T10:01:50.638Z,96748.19
2022-11-03T10:04:17.413Z,96751.00
2022-11-03T10:06:44.008Z,96743.03
2022-11-03T10:09:16.040Z,96731.84
2022-11-03T10:11:42.656Z,96715.88
2022-11-03T10:14:10.033Z,96706.44
2022-11-03T10:16:36.651Z,96711.88
2022-11-03T10:19:03.256Z,96704.81
2022-11-03T10:21:30.864Z,96693.19
2022-11-03T10:23:57.470Z,96687.75
2022-11-03T10:26:24.134Z,96681.94
2022-11-03T10:29:06.495Z,96677.69
2022-11-03T10:31:36.712Z,96671.00
2022-11-03T10:34:03.540Z,96666.34
2022-11-03T10:36:31.457Z,96648.41
2022-11-03T10:38:58.122Z,96645.31
2022-11-03T10:41:26.381Z,96637.09
2022-11-03T10:44:10.876Z,96624.66
2022-11-03T10:46:50.559Z,96610.22
2022-11-03T10:49:18.385Z,96612.19
2022-11-03T10:51:47.906Z,96607.91
2022-11-03T10:54:15.776Z,96623.09
2022-11-03T10:56:42.622Z,96611.31
2022-11-03T10:59:13.187Z,96605.47
2022-11-03T11:01:40.053Z,96605.97
2022-11-03T11:04:06.834Z,96603.97
2022-11-03T11:06:33.597Z,96609.06
2022-11-03T11:09:04.461Z,96593.41
2022-11-03T11:11:31.160Z,96594.06
2022-11-03T11:14:23.460Z,96583.97
2022-11-03T11:16:51.801Z,96575.03
2022-11-03T11:19:18.479Z,96562.56
2022-11-03T11:21:44.942Z,96560.34
2022-11-03T11:24:11.613Z,96557.22
2022-11-03T11:26:38.323Z,96545.50
2022-11-03T11:29:07.849Z,96536.97
2022-11-03T11:31:35.121Z,96527.59
2022-11-03T11:34:10.649Z,96517.06
2022-11-03T11:36:38.513Z,96518.22
2022-11-03T11:39:20.253Z,96516.31
2022-11-03T11:42:05.440Z,96501.59
2022-11-03T11:44:43.982Z,96501.59
2022-11-03T11:47:28.828Z,96499.56
2022-11-03T11:50:07.475Z,96473.47
2022-11-03T11:52:46.549Z,96476.59
2022-11-03T11:55:46.823Z,96465.69
2022-11-03T11:58:18.948Z,96461.88
2022-11-03T12:01:20.731Z,96465.78
2022-11-03T12:03:47.441Z,96462.56
2022-11-03T12:06:14.270Z,96449.72
2022-11-03T12:08:41.305Z,96443.50
2022-11-03T12:11:08.077Z,96432.16
2022-11-03T12:13:42.168Z,96426.75
2022-11-03T12:16:08.791Z,96421.34
2022-11-03T12:18:47.669Z,96395.63
2022-11-03T12:21:44.638Z,96399.56
2022-11-03T12:24:32.741Z,96393.31
2022-11-03T12:26:59.861Z,96384.75
2022-11-03T12:29:26.511Z,96381.63
2022-11-03T12:31:53.313Z,96381.22
2022-11-03T12:34:19.923Z,96376.94
2022-11-03T12:36:47.970Z,96391.34
2022-11-03T12:39:16.237Z,96372.31
2022-11-03T12:41:42.836Z,96357.44
2022-11-03T12:44:09.514Z,96366.88
2022-11-03T12:46:36.161Z,96368.47
2022-11-03T12:49:02.791Z,96359.50
2022-11-03T12:51:29.400Z,96355.22
2022-11-03T12:53:56.030Z,96351.75
2022-11-03T12:56:22.654Z,96343.94
2022-11-03T12:58:49.298Z,96340.44
2022-11-03T13:01:15.996Z,96317.81
2022-11-03T13:03:42.724Z,96321.38
2022-11-03T13:06:09.395Z,96331.88
2022-11-03T13:08:36.342Z,96336.56
2022-11-03T13:11:02.960Z,96343.97
2022-11-03T13:13:29.578Z,96352.94
2022-11-03T13:15:56.185Z,96356.03
2022-11-03T13:18:22.825Z,96351.75
2022-11-03T13:20:49.424Z,96351.25
2022-11-03T13:23:18.778Z,96356.00
2022-11-03T13:25:48.668Z,96360.28
2022-11-03T13:28:15.335Z,96357.56
2022-11-03T13:30:41.949Z,96364.22
2022-11-03T13:33:08.940Z,96357.19
2022-11-03T13:35:35.965Z,96353.28
2022-11-03T13:38:02.649Z,96355.22
2022-11-03T13:40:54.762Z,96356.78
2022-11-03T13:43:15.864Z,96355.16
2022-11-03T13:45:42.476Z,96345.81
2022-11-03T13:50:55.751Z,96344.25
2022-11-03T13:56:13.226Z,96334.03
2022-11-03T14:01:30.829Z,96327.00
2022-11-03T14:06:44.105Z,96310.31
2022-11-03T14:09:10.739Z,96305.59
2022-11-03T14:11:37.406Z,96291.94
2022-11-03T14:14:04.013Z,96299.28
2022-11-03T14:16:30.706Z,96294.69
2022-11-03T14:18:57.377Z,96288.03
2022-11-03T14:21:24.016Z,96277.13
2022-11-03T14:23:50.625Z,96271.31
2022-11-03T14:26:23.946Z,96267.00
2022-11-03T14:29:00.194Z,96253.81
2022-11-03T14:31:26.811Z,96249.53
2022-11-03T14:33:53.414Z,96257.25
2022-11-03T14:36:20.033Z,96247.19
2022-11-03T14:38:50.009Z,96247.91
2022-11-03T14:41:16.810Z,96228.84
2022-11-03T14:43:43.429Z,96220.31
2022-11-03T14:46:10.084Z,96222.63
2022-11-03T14:48:36.778Z,96226.53
2022-11-03T14:51:03.407Z,96214.09
2022-11-03T14:53:30.006Z,96208.66
2022-11-03T14:55:56.741Z,96196.19
2022-11-03T14:58:23.335Z,96188.44
2022-11-03T15:00:49.971Z,96191.56
2022-11-03T15:03:16.778Z,96190.00
2022-11-03T15:05:43.397Z,96189.59
2022-11-03T15:08:13.722Z,96179.09
2022-11-03T15:10:40.345Z,96168.22
2022-11-03T15:13:07.167Z,96162.38
2022-11-03T15:15:34.070Z,96160.44
2022-11-03T15:18:02.962Z,96172.47
2022-11-03T15:20:30.012Z,96181.03
2022-11-03T15:25:43.254Z,96155.75
2022-11-03T15:28:10.070Z,96150.31
2022-11-03T15:30:36.812Z,96145.25
2022-11-03T15:33:03.606Z,96149.16
2022-11-03T15:35:30.298Z,96141.75
2022-11-03T15:37:56.954Z,96139.78
2022-11-03T15:40:23.562Z,96140.59
2022-11-03T15:42:50.167Z,96156.13
2022-11-03T15:45:16.835Z,96158.88
2022-11-03T15:47:43.546Z,96158.88
2022-11-03T15:50:10.356Z,96155.38
2022-11-03T15:52:36.960Z,96157.69
2022-11-03T15:55:04.313Z,96150.22
2022-11-03T15:57:30.982Z,96169.28
2022-11-03T15:59:57.957Z,96163.53
2022-11-03T16:02:40.734Z,96134.75
2022-11-03T16:05:09.201Z,96134.34
2022-11-03T16:07:35.818Z,96137.78
2022-11-03T16:10:02.552Z,96140.56
2022-11-03T16:12:30.076Z,96130.78
2022-11-03T16:14:56.757Z,96133.59
2022-11-03T16:17:23.365Z,96132.03
2022-11-03T16:19:50.074Z,96121.50
2022-11-03T16:22:16.686Z,96125.41
2022-11-03T16:24:43.290Z,96095.88
2022-11-03T16:27:09.985Z,96086.94
2022-11-03T16:29:36.608Z,96098.94
2022-11-03T16:32:03.223Z,96072.91
2022-11-03T16:34:29.840Z,96074.06
2022-11-03T16:36:56.463Z,96076.81
2022-11-03T16:39:23.058Z,96050.75
2022-11-03T16:41:49.665Z,96065.16
2022-11-03T16:44:16.272Z,96080.66
2022-11-03T16:46:42.882Z,96070.63
2022-11-03T16:49:09.484Z,96078.38
2022-11-03T16:51:36.098Z,96090.09
2022-11-03T16:54:02.698Z,96076.84
2022-11-03T16:56:29.298Z,96079.56
2022-11-03T16:58:55.915Z,96070.63
2022-11-03T17:01:22.887Z,96076.84
2022-11-03T17:03:49.557Z,96081.50
2022-11-03T17:06:16.182Z,96075.28
2022-11-03T17:08:57.991Z,96080.72
2022-11-03T17:11:24.610Z,96075.63
2022-11-03T17:13:51.257Z,96072.91
2022-11-03T17:16:17.911Z,96076.34
2022-11-03T17:18:44.509Z,96082.16
2022-11-03T17:21:11.126Z,96070.09
2022-11-03T17:23:37.733Z,96056.59
2022-11-03T17:26:04.374Z,96066.31
2022-11-03T17:28:30.994Z,96064.75
2022-11-03T17:30:57.597Z,96078.38
2022-11-03T17:33:24.201Z,96059.72
2022-11-03T17:35:50.809Z,96065.53
2022-11-03T17:38:17.494Z,96060.13
2022-11-03T17:40:47.485Z,96055.03
2022-11-03T17:43:26.396Z,96057.00
2022-11-03T17:45:53.005Z,96038.31
2022-11-03T17:48:20.021Z,96032.47
2022-11-03T17:50:48.690Z,96024.69
2022-11-03T17:53:33.445Z,96021.59
2022-11-03T17:56:28.513Z,96021.59
2022-11-03T17:58:47.466Z,96018.09
2022-11-03T18:01:19.994Z,96009.16
2022-11-03T18:03:46.699Z,96014.59
2022-11-03T18:06:15.621Z,96024.72
2022-11-03T18:08:42.296Z,96031.31
2022-11-03T18:11:09.009Z,96044.94
2022-11-03T18:13:35.612Z,96052.69
2022-11-03T18:16:05.403Z,96036.34
2022-11-03T18:18:34.430Z,96014.97
2022-11-03T18:21:01.061Z,96035.59
2022-11-03T18:23:31.873Z,96030.53
2022-11-03T18:25:59.241Z,96023.91
2022-11-03T18:28:25.844Z,96004.88
2022-11-03T18:30:53.605Z,95991.63
2022-11-03T18:33:34.445Z,95991.25
2022-11-03T18:36:05.266Z,95992.78
2022-11-03T18:38:31.876Z,96002.50
2022-11-03T18:40:58.481Z,95999.78
2022-11-03T18:43:25.202Z,95999.78
2022-11-03T18:45:51.867Z,95999.00
2022-11-03T18:48:18.469Z,95999.00
2022-11-03T18:50:46.658Z,95989.69
2022-11-03T18:53:13.302Z,96002.16
2022-11-03T18:55:39.965Z,95997.47
2022-11-03T18:58:12.993Z,96012.63
2022-11-03T19:00:39.636Z,96003.69
2022-11-03T19:03:18.043Z,96016.16
2022-11-03T19:05:45.486Z,96069.84
2022-11-03T19:08:21.946Z,96076.84
2022-11-03T19:10:48.624Z,96088.50
2022-11-03T19:13:18.637Z,96076.44
2022-11-03T19:15:45.243Z,96051.16
2022-11-03T19:18:11.990Z,96060.09
2022-11-03T19:20:38.602Z,96046.50
2022-11-03T19:23:05.490Z,96046.09
2022-11-03T19:25:32.417Z,96028.59
2022-11-03T19:27:59.025Z,96044.94
2022-11-03T19:30:25.646Z,96058.94
2022-11-03T19:32:53.453Z,96058.16
2022-11-03T19:35:25.831Z,96068.66
2022-11-03T19:38:00.829Z,96080.34
2022-11-03T19:40:27.833Z,96072.94
2022-11-03T19:42:55.155Z,96076.84
2022-11-03T19:45:22.052Z,96083.44
2022-11-03T19:48:18.364Z,96089.28
2022-11-03T19:50:38.232Z,96079.53
2022-11-03T19:53:05.873Z,96090.47
2022-11-03T19:55:40.132Z,96079.94
2022-11-03T19:58:17.017Z,96085.41
2022-11-03T20:00:44.349Z,96084.22
2022-11-03T20:03:11.080Z,96098.63
2022-11-03T20:05:37.970Z,96106.44
2022-11-03T20:08:06.414Z,96118.88
2022-11-03T20:10:35.878Z,96120.84
2022-11-03T20:13:03.133Z,96112.69
2022-11-03T20:15:30.727Z,96125.13
2022-11-03T20:17:57.381Z,96122.00
2022-11-03T20:20:24.430Z,96122.00
2022-11-03T20:22:55.753Z,96127.44
2022-11-03T20:25:26.729Z,96132.91
2022-11-03T20:27:53.474Z,96141.06
2022-11-03T20:30:20.732Z,96143.81
2022-11-03T20:32:47.479Z,96144.97
2022-11-03T20:35:25.053Z,96155.09
2022-11-03T20:37:53.316Z,96166.00
2022-11-03T20:40:24.231Z,96174.19
2022-11-03T20:42:53.679Z,96199.09
2022-11-03T20:45:20.980Z,96215.06
2022-11-03T20:47:48.418Z,96210.00
2022-11-03T20:50:15.921Z,96228.69
2022-11-03T20:52:42.775Z,96237.69
2022-11-03T20:55:22.201Z,96251.69
2022-11-03T20:57:49.007Z,96234.16
2022-11-03T21:00:25.854Z,96244.28
2022-11-03T21:02:52.469Z,96245.09
2022-11-03T21:05:21.133Z,96248.16
2022-11-03T21:07:47.758Z,96248.97
2022-11-03T21:10:20.212Z,96264.53
2022-11-03T21:12:47.323Z,96273.50
2022-11-03T21:15:17.770Z,96285.22
2022-11-03T21:17:44.674Z,96277.81
2022-11-03T21:20:11.401Z,96292.25
2022-11-03T21:22:56.925Z,96295.75
2022-11-03T21:25:24.178Z,96308.22
2022-11-03T21:27:51.575Z,96314.09
2022-11-03T21:30:18.699Z,96328.47
2022-11-03T21:32:45.351Z,96341.22
2022-11-03T21:35:14.468Z,96355.53
2022-11-03T21:37:41.129Z,96346.19
2022-11-03T21:40:08.417Z,96341.50
2022-11-03T21:42:35.030Z,96348.88
2022-11-03T21:45:01.655Z,96350.72
2022-11-03T21:47:28.309Z,96352.22
2022-11-03T21:49:54.984Z,96359.53
2022-11-03T21:52:22.295Z,96348.53
2022-11-03T21:54:48.909Z,96360.63
2022-11-03T21:57:15.552Z,96359.44
2022-11-03T21:59:42.157Z,96346.66
2022-11-03T22:02:10.043Z,96339.94
2022-11-03T22:04:36.704Z,96334.50
2022-11-03T22:07:03.330Z,96333.34
2022-11-03T22:09:29.941Z,96336.44
2022-11-03T22:11:56.539Z,96340.34
2022-11-03T22:14:23.152Z,96329.41
2022-11-03T22:16:49.840Z,96301.78
2022-11-03T22:19:17.957Z,96280.00
2022-11-03T22:21:44.570Z,96278.03
2022-11-03T22:24:11.170Z,96312.34
2022-11-03T22:26:37.784Z,96319.75
2022-11-03T22:29:04.398Z,96324.84
2022-11-03T22:31:31.426Z,96332.63
2022-11-03T22:33:58.028Z,96346.88
2022-11-03T22:36:24.648Z,96330.91
2022-11-03T22:38:51.295Z,96317.28
2022-11-03T22:41:17.913Z,96322.34
2022-11-03T22:43:44.514Z,96323.91
2022-11-03T22:46:11.557Z,96323.88
2022-11-03T22:48:38.170Z,96320.03
2022-11-03T22:51:12.110Z,96327.38
2022-11-03T22:53:38.717Z,96337.13
2022-11-03T22:56:05.330Z,96349.94
2022-11-03T22:58:31.934Z,96351.06
2022-11-03T23:01:02.625Z,96359.28
2022-11-03T23:03:33.568Z,96355.78
2022-11-03T23:06:01.645Z,96354.16
2022-11-03T23:08:29.890Z,96350.69
2022-11-03T23:10:56.550Z,96351.44
2022-11-03T23:13:23.181Z,96338.63
2022-11-03T23:15:49.790Z,96357.38
2022-11-03T23:18:16.387Z,96367.41
2022-11-03T23:20:43.000Z,96370.13
2022-11-03T23:23:09.941Z,96368.56
2022-11-03T23:25:36.870Z,96362.72
2022-11-03T23:28:03.484Z,96354.53
2022-11-03T23:30:30.075Z,96351.84
2022-11-03T23:32:56.678Z,96350.66
2022-11-03T23:35:23.282Z,96358.44
2022-11-03T23:37:49.886Z,96362.03
2022-11-03T23:40:20.347Z,96362.75
2022-11-03T23:42:48.171Z,96377.50
2022-11-03T23:45:14.787Z,96371.28
2022-11-03T23:47:41.387Z,96368.97
2022-11-03T23:50:08.229Z,96361.94
2022-11-03T23:52:34.834Z,96368.19
2022-11-03T23:55:01.444Z,96363.19
2022-11-03T23:57:28.081Z,96359.75
2022-11-03T23:59:54.698Z,96354.16
